Time;durP1;ratioP1;P1;durP2;ratioP2;P2;SDS_P1;SDS_P2;PMS_P1;PMS_P2;Temp;Humidity;BMP_temperature;BMP_pressure;BME280_temperature;BME280_humidity;BME280_pressure;Samples;Min_cycle;Max_cycle;Signal;HPM_P1;HPM_P2
2022/11/05 00:10:20;;;;;;;6.22;2.88;;;;;;;9.89;83.10;101566.25;5007013;28;20084;-64
2022/11/05 00:18:14;;;;;;;6.85;3.05;;;;;;;9.70;82.79;101571.38;4997416;28;20046;-64
2022/11/05 00:20:40;;;;;;;7.85;3.30;;;;;;;9.68;82.71;101568.75;4992705;28;20409;-64
2022/11/05 00:25:57;;;;;;;7.65;3.28;;;;;;;9.60;83.08;101578.72;4984039;28;20122;-64
2022/11/05 00:28:23;;;;;;;8.25;2.95;;;;;;;9.56;83.03;101571.69;5000998;28;20084;-64
2022/11/05 00:30:48;;;;;;;5.88;3.30;;;;;;;9.56;83.18;101578.50;4992354;28;20045;-64
2022/11/05 00:33:14;;;;;;;5.40;3.20;;;;;;;9.55;83.19;101580.19;5001265;28;20396;-64
2022/11/05 00:35:39;;;;;;;6.05;3.13;;;;;;;9.59;82.73;101581.22;4996611;28;20030;-64
2022/11/05 00:38:05;;;;;;;8.77;3.60;;;;;;;9.51;82.27;101591.13;4996936;28;20084;-64
2022/11/05 00:40:30;;;;;;;6.78;3.10;;;;;;;9.47;82.05;101585.81;4989734;28;20514;-64
2022/11/05 00:45:40;;;;;;;6.78;3.42;;;;;;;9.38;82.17;101593.97;5004420;28;20041;-64
2022/11/05 00:50:49;;;;;;;6.82;3.72;;;;;;;9.27;82.40;101597.75;5008829;28;20504;-64
2022/11/05 00:53:15;;;;;;;6.60;3.75;;;;;;;9.27;82.49;101595.19;5008494;28;20034;-64
2022/11/05 00:55:42;;;;;;;5.88;3.60;;;;;;;9.27;82.64;101593.50;4984455;28;20545;-64
2022/11/05 00:58:09;;;;;;;6.35;3.70;;;;;;;9.19;82.63;101597.41;4999973;28;20042;-64
2022/11/05 01:00:37;;;;;;;6.13;3.65;;;;;;;9.17;82.49;101596.47;5003482;28;20017;-64
2022/11/05 01:03:07;;;;;;;5.95;3.40;;;;;;;9.18;82.22;101610.19;4998186;28;20226;-64
2022/11/05 01:05:33;;;;;;;7.93;4.13;;;;;;;9.10;81.94;101613.28;5000214;28;20022;-64
2022/11/05 01:07:59;;;;;;;6.78;3.70;;;;;;;9.05;82.73;101611.31;4982186;28;20105;-64
2022/11/05 01:10:25;;;;;;;7.70;3.35;;;;;;;9.08;82.24;101609.75;5000861;28;20481;-64
2022/11/05 01:12:51;;;;;;;5.97;3.63;;;;;;;9.02;82.52;101612.03;5004261;28;20030;-64
2022/11/05 01:15:18;;;;;;;8.75;3.78;;;;;;;9.01;82.82;101622.22;5012375;28;20038;-64
2022/11/05 01:17:43;;;;;;;6.28;3.85;;;;;;;9.00;82.35;101620.47;4988470;28;20034;-64
2022/11/05 01:20:10;;;;;;;6.85;3.88;;;;;;;8.99;82.95;101622.16;5006540;28;20026;-64
2022/11/05 01:22:35;;;;;;;11.40;4.78;;;;;;;9.00;82.73;101629.03;5010439;28;20136;-64
2022/11/05 01:25:01;;;;;;;9.07;4.10;;;;;;;9.00;82.42;101633.31;4990449;28;20532;-64
2022/11/05 01:27:26;;;;;;;6.53;3.83;;;;;;;8.97;82.83;101636.59;5000921;28;20084;-64
2022/11/05 01:29:51;;;;;;;8.48;4.30;;;;;;;8.95;83.16;101643.34;4994772;28;20030;-64
2022/11/05 01:32:17;;;;;;;6.68;3.70;;;;;;;8.91;82.88;101643.13;5004219;28;20030;-64
2022/11/05 01:34:42;;;;;;;5.88;3.70;;;;;;;8.87;82.66;101642.09;4998913;28;20076;-64
2022/11/05 01:37:07;;;;;;;5.53;3.75;;;;;;;8.84;82.86;101637.69;5001791;28;20022;-64
2022/11/05 01:39:34;;;;;;;5.90;4.10;;;;;;;8.80;83.11;101635.81;5001094;28;20050;-64
2022/11/05 01:41:59;;;;;;;5.53;3.85;;;;;;;8.83;82.79;101640.19;4989903;28;20134;-64
2022/11/05 01:44:47;;;;;;;7.00;3.92;;;;;;;8.94;83.12;101649.28;5007686;28;20030;-64
2022/11/05 01:47:44;;;;;;;7.18;3.80;;;;;;;8.93;83.14;101647.53;5006895;28;20025;-64
2022/11/05 01:50:46;;;;;;;6.50;3.72;;;;;;;8.92;83.08;101645.78;4980758;28;20066;-64
2022/11/05 01:53:16;;;;;;;7.07;3.50;;;;;;;8.87;83.35;101647.25;4964121;28;20041;-64
2022/11/05 01:55:49;;;;;;;7.07;3.70;;;;;;;8.82;82.74;101641.88;5009834;28;20033;-64
2022/11/05 01:58:20;;;;;;;6.78;3.70;;;;;;;8.78;82.95;101637.41;4997048;28;20030;-64
2022/11/05 02:00:46;;;;;;;7.45;3.70;;;;;;;8.75;82.75;101642.41;4993160;28;20036;-64
2022/11/05 02:03:15;;;;;;;6.05;3.15;;;;;;;8.75;83.39;101636.41;4992969;28;20034;-64
2022/11/05 02:05:41;;;;;;;6.35;3.20;;;;;;;8.74;82.67;101635.53;4994850;28;20022;-64
2022/11/05 02:08:12;;;;;;;6.30;3.17;;;;;;;8.73;82.83;101627.72;4995059;28;20181;-64
2022/11/05 02:10:39;;;;;;;7.28;3.05;;;;;;;8.69;82.37;101621.59;4998280;28;20160;-64
2022/11/05 02:13:04;;;;;;;7.35;2.85;;;;;;;8.70;82.41;101619.91;4996633;28;20115;-64
2022/11/05 02:15:54;;;;;;;6.20;2.95;;;;;;;8.72;82.54;101625.97;5014219;28;20022;-64
2022/11/05 02:18:44;;;;;;;7.82;2.92;;;;;;;8.63;82.89;101623.88;4998026;28;20030;-64
2022/11/05 02:21:41;;;;;;;6.57;3.05;;;;;;;8.67;82.64;101636.00;5005988;28;20040;-64
2022/11/05 02:24:44;;;;;;;8.88;3.47;;;;;;;8.70;82.74;101635.28;5000180;28;20434;-64
2022/11/05 02:27:17;;;;;;;7.72;2.90;;;;;;;8.62;82.60;101622.13;5004174;28;20077;-64
2022/11/05 02:30:05;;;;;;;7.35;2.90;;;;;;;8.66;82.62;101636.81;5002729;28;20105;-64
2022/11/05 02:32:46;;;;;;;12.30;3.05;;;;;;;8.59;82.50;101627.06;5002903;28;20137;-64
2022/11/05 02:35:45;;;;;;;7.93;3.17;;;;;;;8.54;82.53;101621.72;5001851;28;20033;-64
2022/11/05 02:38:39;;;;;;;10.65;3.20;;;;;;;8.61;82.14;101628.03;4962877;28;20049;-65
2022/11/05 02:41:16;;;;;;;6.30;2.75;;;;;;;8.56;82.05;101625.25;4965373;28;20125;-64
2022/11/05 02:43:56;;;;;;;5.60;2.85;;;;;;;8.55;82.27;101628.63;5006208;28;20018;-64
2022/11/05 02:46:25;;;;;;;5.95;2.80;;;;;;;8.52;82.89;101630.16;4997359;28;20013;-64
2022/11/05 02:49:02;;;;;;;6.65;2.70;;;;;;;8.47;82.33;101623.94;4995923;28;20030;-64
2022/11/05 02:51:37;;;;;;;7.50;3.00;;;;;;;8.51;82.90;101631.84;5001517;28;20019;-64
2022/11/05 02:54:32;;;;;;;7.57;2.90;;;;;;;8.52;83.32;101625.91;4998536;28;20026;-64
2022/11/05 02:57:01;;;;;;;6.88;3.25;;;;;;;8.42;83.22;101626.25;4999719;28;20036;-65
2022/11/05 02:59:27;;;;;;;8.40;3.00;;;;;;;8.39;83.14;101623.56;4994193;28;20029;-66
2022/11/05 03:01:53;;;;;;;6.97;3.03;;;;;;;8.36;83.57;101625.06;4996001;28;20030;-65
2022/11/05 03:04:21;;;;;;;5.15;2.92;;;;;;;8.37;83.17;101617.47;4995870;28;20061;-66
2022/11/05 03:07:28;;;;;;;5.88;2.97;;;;;;;8.47;83.50;101618.78;4996963;28;20030;-65
2022/11/05 03:10:04;;;;;;;4.43;3.00;;;;;;;8.39;83.21;101621.00;4994883;28;20042;-66
2022/11/05 03:13:04;;;;;;;5.65;2.70;;;;;;;8.41;82.93;101619.38;4999372;28;20022;-66
2022/11/05 03:15:55;;;;;;;7.60;2.80;;;;;;;8.43;82.93;101619.44;4997877;28;20152;-65
2022/11/05 03:18:29;;;;;;;6.50;3.22;;;;;;;8.34;82.77;101619.84;5000407;28;20362;-66
2022/11/05 03:21:59;;;;;;;6.82;3.00;;;;;;;8.45;82.73;101623.84;5000492;28;20484;-66
2022/11/05 03:24:33;;;;;;;5.72;3.05;;;;;;;8.34;83.58;101619.84;4922440;29;20039;-66
2022/11/05 03:27:07;;;;;;;5.80;3.33;;;;;;;8.31;83.33;101620.59;5007989;28;20101;-65
2022/11/05 03:30:06;;;;;;;8.68;3.03;;;;;;;8.39;82.83;101631.25;5006258;28;20026;-66
2022/11/05 03:32:37;;;;;;;8.38;3.28;;;;;;;8.31;83.02;101624.81;5005284;28;20022;-65
2022/11/05 03:35:13;;;;;;;7.07;3.38;;;;;;;8.30;83.49;101630.75;5001853;28;20026;-65
2022/11/05 03:37:42;;;;;;;9.75;3.47;;;;;;;8.28;83.13;101635.81;5003893;28;20018;-65
2022/11/05 03:40:09;;;;;;;7.90;3.60;;;;;;;8.32;82.90;101631.72;5006070;28;20045;-65
2022/11/05 03:42:37;;;;;;;6.03;3.45;;;;;;;8.25;83.29;101637.31;4997110;28;20499;-66
2022/11/05 03:45:09;;;;;;;11.23;3.42;;;;;;;8.22;83.23;101639.75;4995701;28;20393;-66
2022/11/05 03:47:38;;;;;;;7.70;3.53;;;;;;;8.21;83.24;101627.75;4998029;28;20439;-66
2022/11/05 03:50:13;;;;;;;9.25;3.47;;;;;;;8.20;82.51;101626.00;4993214;28;20054;-66
2022/11/05 03:52:47;;;;;;;6.88;3.25;;;;;;;8.19;82.90;101634.44;4994318;28;20045;-66
2022/11/05 03:55:12;;;;;;;6.80;3.35;;;;;;;8.13;82.59;101636.72;4983360;28;20084;-66
2022/11/05 03:57:44;;;;;;;7.90;3.95;;;;;;;8.10;83.08;101634.00;4996590;28;20026;-65
2022/11/05 04:00:10;;;;;;;8.45;3.20;;;;;;;8.12;82.64;101648.63;4980292;28;20033;-66
2022/11/05 04:02:36;;;;;;;6.80;3.78;;;;;;;8.05;82.79;101636.34;4998892;28;20109;-65
2022/11/05 04:05:01;;;;;;;10.85;3.30;;;;;;;8.06;82.88;101631.28;4999749;28;20104;-66
2022/11/05 04:18:22;;;;;;;8.40;4.15;;;;;;;7.95;82.74;101639.25;5000142;28;20572;-65
2022/11/05 04:26:16;;;;;;;7.88;4.30;;;;;;;7.95;83.48;101652.94;5007623;28;20083;-65
2022/11/05 04:31:25;;;;;;;8.40;4.80;;;;;;;7.96;82.83;101653.81;4994879;28;20072;-65
2022/11/05 04:33:50;;;;;;;11.13;4.80;;;;;;;7.99;83.15;101657.38;5001568;28;20058;-66
2022/11/05 04:36:17;;;;;;;8.63;4.78;;;;;;;7.93;83.52;101662.19;4995810;28;20022;-64
2022/11/05 04:38:42;;;;;;;8.80;4.75;;;;;;;7.96;83.39;101657.25;4993773;28;20085;-65
2022/11/05 04:41:15;;;;;;;10.85;5.00;;;;;;;7.93;83.58;101653.63;4993428;28;20038;-64
2022/11/05 04:43:40;;;;;;;12.02;4.88;;;;;;;7.93;83.52;101654.50;4997784;28;20025;-66
2022/11/05 04:46:07;;;;;;;9.60;4.80;;;;;;;7.88;83.51;101662.75;5003682;28;20029;-65
2022/11/05 04:48:32;;;;;;;11.88;4.78;;;;;;;7.87;83.16;101654.19;4994561;28;20022;-65
2022/11/05 04:50:58;;;;;;;7.97;5.40;;;;;;;7.85;82.67;101660.06;4995596;28;20370;-66
2022/11/05 04:53:23;;;;;;;9.13;5.07;;;;;;;7.91;82.77;101668.94;5015687;28;20022;-65
2022/11/05 04:55:48;;;;;;;10.10;5.20;;;;;;;7.86;82.18;101675.50;4973646;28;20040;-65
2022/11/05 04:58:14;;;;;;;12.10;5.43;;;;;;;7.89;82.21;101670.53;4982401;28;20065;-66
2022/11/05 05:00:39;;;;;;;7.40;4.97;;;;;;;7.92;82.64;101667.25;5001858;28;20370;-66
2022/11/05 05:03:05;;;;;;;7.70;5.22;;;;;;;7.83;83.11;101667.66;4991067;28;20021;-66
2022/11/05 05:05:30;;;;;;;9.35;5.20;;;;;;;7.77;82.93;101667.34;4991688;28;20427;-66
2022/11/05 05:08:04;;;;;;;10.15;5.30;;;;;;;7.85;83.25;101678.84;5002337;28;20089;-65
2022/11/05 05:10:30;;;;;;;11.45;5.53;;;;;;;7.76;83.25;101681.81;5002046;28;20033;-66
2022/11/05 05:12:55;;;;;;;10.40;5.78;;;;;;;7.82;83.47;101678.69;5004443;28;20034;-65
2022/11/05 05:15:22;;;;;;;11.90;5.47;;;;;;;7.78;83.48;101676.78;4997423;28;20077;-65
2022/11/05 05:17:53;;;;;;;12.25;6.75;;;;;;;7.82;83.82;101681.25;4986427;28;20434;-65
2022/11/05 05:23:03;;;;;;;13.80;6.63;;;;;;;7.81;83.58;101689.72;5007918;28;20044;-65
2022/11/05 05:25:29;;;;;;;9.80;5.85;;;;;;;7.77;83.70;101687.84;5004956;28;20022;-65
2022/11/05 05:27:57;;;;;;;14.25;6.20;;;;;;;7.75;83.14;101681.72;5001087;28;20022;-65
2022/11/05 05:30:24;;;;;;;11.80;6.00;;;;;;;7.74;83.77;101693.66;4993124;28;20499;-65
2022/11/05 05:32:49;;;;;;;10.98;6.05;;;;;;;7.78;83.38;101689.59;4999621;28;20027;-65
2022/11/05 05:35:15;;;;;;;10.13;6.45;;;;;;;7.73;83.47;101689.34;4994926;28;20035;-65
2022/11/05 05:37:40;;;;;;;13.15;6.35;;;;;;;7.71;83.41;101695.19;5001364;28;20034;-65
2022/11/05 05:40:07;;;;;;;12.95;6.10;;;;;;;7.74;83.19;101687.66;4997099;28;20517;-65
2022/11/05 05:42:33;;;;;;;9.75;5.85;;;;;;;7.71;83.10;101690.06;4999198;28;20489;-65
2022/11/05 05:44:58;;;;;;;10.75;5.88;;;;;;;7.68;83.49;101697.56;4999547;28;20026;-65
2022/11/05 05:47:23;;;;;;;9.68;6.03;;;;;;;7.69;83.43;101699.31;5000225;28;20437;-65
2022/11/05 05:49:49;;;;;;;11.23;5.93;;;;;;;7.68;83.42;101692.44;5001156;28;20035;-65
2022/11/05 05:52:14;;;;;;;12.90;6.30;;;;;;;7.66;83.82;101694.06;4984129;28;20107;-65
2022/11/05 05:54:39;;;;;;;15.93;6.97;;;;;;;7.66;83.43;101702.63;5004297;28;20034;-65
2022/11/05 05:57:04;;;;;;;11.20;6.15;;;;;;;7.62;83.38;101689.56;4995958;28;20030;-65
2022/11/05 05:59:30;;;;;;;11.57;6.55;;;;;;;7.59;83.57;101705.66;5007101;28;20037;-65
2022/11/05 06:01:55;;;;;;;13.43;7.60;;;;;;;7.61;83.36;101703.16;5001241;28;20500;-65
2022/11/05 06:04:21;;;;;;;11.52;6.97;;;;;;;7.62;83.48;101705.81;5004075;28;20033;-65
2022/11/05 06:06:46;;;;;;;14.32;6.97;;;;;;;7.63;83.76;101709.25;5006412;28;20428;-65
2022/11/05 06:09:13;;;;;;;13.82;7.55;;;;;;;7.64;83.84;101705.88;5003649;28;20023;-65
2022/11/05 06:11:38;;;;;;;15.55;6.88;;;;;;;7.61;83.67;101700.59;5007016;28;20025;-65
2022/11/05 06:14:03;;;;;;;16.38;6.78;;;;;;;7.65;83.63;101699.97;4992608;28;20021;-65
2022/11/05 06:16:34;;;;;;;12.05;6.63;;;;;;;7.67;83.63;101701.81;4992805;28;20082;-65
2022/11/05 06:18:59;;;;;;;11.85;6.70;;;;;;;7.63;83.21;101707.56;4996462;28;20076;-65
2022/11/05 06:21:25;;;;;;;15.20;6.88;;;;;;;7.60;83.15;101701.41;4997233;28;20038;-65
2022/11/05 06:23:50;;;;;;;17.13;7.13;;;;;;;7.63;83.53;101711.81;5016829;28;20500;-65
2022/11/05 06:26:17;;;;;;;11.48;6.70;;;;;;;7.57;83.13;101708.91;5005378;28;20743;-65
2022/11/05 06:28:43;;;;;;;13.50;6.88;;;;;;;7.55;82.91;101710.53;5002050;28;20052;-65
2022/11/05 06:31:10;;;;;;;9.90;6.90;;;;;;;7.50;82.90;101708.59;4995015;28;20366;-65
2022/11/05 06:33:36;;;;;;;13.77;6.78;;;;;;;7.51;83.44;101710.34;4999618;28;20033;-65
2022/11/05 06:36:02;;;;;;;12.75;6.75;;;;;;;7.42;83.44;101712.41;5001158;28;20030;-65
2022/11/05 06:38:31;;;;;;;13.55;6.90;;;;;;;7.46;83.59;101711.78;5000584;28;20054;-66
2022/11/05 06:40:58;;;;;;;13.17;6.60;;;;;;;7.52;83.35;101716.34;5000350;28;20105;-65
2022/11/05 06:43:24;;;;;;;12.75;6.95;;;;;;;7.47;83.42;101708.44;5000107;28;20265;-65
2022/11/05 06:45:49;;;;;;;12.05;6.90;;;;;;;7.53;83.45;101720.69;5005476;28;20022;-65
2022/11/05 06:48:14;;;;;;;15.32;7.28;;;;;;;7.49;83.61;101716.19;5002176;28;20107;-65
2022/11/05 06:50:44;;;;;;;14.43;7.05;;;;;;;7.52;83.63;101718.91;5002824;28;20488;-65
2022/11/05 06:53:09;;;;;;;10.38;6.85;;;;;;;7.50;83.43;101718.81;5004872;28;20037;-65
2022/11/05 06:55:34;;;;;;;13.93;6.63;;;;;;;7.47;83.60;101721.22;4999822;28;20093;-65
2022/11/05 06:58:00;;;;;;;12.13;6.88;;;;;;;7.41;83.63;101717.47;5001958;28;20400;-65
2022/11/05 07:00:25;;;;;;;13.73;6.85;;;;;;;7.42;83.40;101722.66;4998386;28;20034;-65
2022/11/05 07:02:51;;;;;;;11.50;6.65;;;;;;;7.46;83.32;101724.59;5003843;28;20042;-65
2022/11/05 07:05:17;;;;;;;11.43;7.25;;;;;;;7.47;83.31;101731.47;5003169;28;20461;-65
2022/11/05 07:07:43;;;;;;;12.30;6.78;;;;;;;7.41;83.13;101728.56;5005116;28;20036;-65
2022/11/05 07:10:13;;;;;;;9.82;6.50;;;;;;;7.46;83.54;101741.59;5006779;28;20030;-65
2022/11/05 07:12:38;;;;;;;12.45;7.18;;;;;;;7.39;83.59;101730.16;5008387;28;20072;-65
2022/11/05 07:15:04;;;;;;;12.07;6.90;;;;;;;7.40;83.44;101737.06;5003952;28;20039;-65
2022/11/05 07:17:30;;;;;;;12.75;6.70;;;;;;;7.43;83.53;101738.88;4993100;28;20022;-65
2022/11/05 07:19:55;;;;;;;10.23;6.50;;;;;;;7.41;83.53;101741.38;4993150;28;20065;-64
2022/11/05 07:22:20;;;;;;;11.40;6.50;;;;;;;7.42;83.83;101745.69;5001755;28;20030;-65
2022/11/05 07:24:48;;;;;;;13.98;6.70;;;;;;;7.44;84.02;101740.66;5000052;28;20503;-65
2022/11/05 07:27:13;;;;;;;12.93;6.25;;;;;;;7.41;84.26;101743.94;4991862;28;20030;-65
2022/11/05 07:29:38;;;;;;;12.73;6.35;;;;;;;7.50;84.59;101748.66;4996219;28;20428;-65
2022/11/05 07:32:04;;;;;;;14.80;6.43;;;;;;;7.48;84.49;101740.91;5001381;28;20160;-65
2022/11/05 07:34:30;;;;;;;13.82;6.72;;;;;;;7.52;84.47;101740.28;4994621;28;20144;-65
2022/11/05 07:36:55;;;;;;;11.18;6.32;;;;;;;7.51;84.56;101746.16;5000562;28;20041;-65
2022/11/05 07:39:21;;;;;;;9.52;5.90;;;;;;;7.55;84.59;101756.59;4998537;28;20109;-65
2022/11/05 07:41:46;;;;;;;9.95;6.20;;;;;;;7.51;84.67;101752.97;5001544;28;20504;-65
2022/11/05 07:44:13;;;;;;;12.30;6.32;;;;;;;7.55;84.85;101757.47;5002474;28;20045;-65
2022/11/05 07:46:40;;;;;;;10.43;6.40;;;;;;;7.53;85.05;101759.06;5000444;28;20026;-65
2022/11/05 07:49:05;;;;;;;11.50;6.18;;;;;;;7.57;84.90;101758.41;5001760;28;20034;-65
2022/11/05 07:51:30;;;;;;;14.32;6.68;;;;;;;7.57;85.30;101760.97;5005593;28;20030;-66
2022/11/05 07:53:56;;;;;;;12.13;5.80;;;;;;;7.62;85.37;101766.34;5006004;28;20084;-65
2022/11/05 07:56:21;;;;;;;10.35;6.00;;;;;;;7.62;85.32;101764.69;5007483;28;20476;-65
2022/11/05 07:58:46;;;;;;;8.60;5.63;;;;;;;7.65;85.74;101762.31;4997595;28;20035;-65
2022/11/05 08:01:12;;;;;;;9.15;5.72;;;;;;;7.69;85.57;101761.66;5004472;28;20080;-66
2022/11/05 08:03:37;;;;;;;9.65;6.10;;;;;;;7.72;85.69;101760.94;5001159;28;20432;-66
2022/11/05 08:06:03;;;;;;;11.00;6.15;;;;;;;7.73;85.98;101763.59;4992196;28;20026;-66
2022/11/05 08:08:28;;;;;;;11.05;5.95;;;;;;;7.75;85.79;101763.66;4995144;28;20040;-66
2022/11/05 08:11:02;;;;;;;13.40;6.13;;;;;;;7.77;86.17;101762.06;4997858;28;20033;-66
2022/11/05 08:13:27;;;;;;;8.00;6.10;;;;;;;7.77;86.53;101762.97;5019284;28;20033;-66
2022/11/05 08:15:55;;;;;;;10.55;6.03;;;;;;;7.81;86.57;101761.41;4992742;28;20035;-66
2022/11/05 08:18:20;;;;;;;10.15;6.03;;;;;;;7.82;86.72;101768.31;4980901;28;20030;-66
2022/11/05 08:20:46;;;;;;;10.02;6.60;;;;;;;7.86;86.65;101762.56;4995800;28;20038;-66
2022/11/05 08:23:12;;;;;;;12.50;6.32;;;;;;;7.90;86.50;101759.38;4996747;28;20635;-66
2022/11/05 08:25:38;;;;;;;10.38;6.18;;;;;;;7.87;87.08;101753.19;5003920;28;20033;-66
2022/11/05 08:28:09;;;;;;;12.30;6.70;;;;;;;7.92;87.29;101765.44;4996123;28;20113;-66
2022/11/05 08:30:35;;;;;;;15.50;6.55;;;;;;;7.90;87.26;101764.50;5003738;28;20038;-66
2022/11/05 08:33:04;;;;;;;12.55;6.50;;;;;;;7.98;87.61;101760.63;5004430;28;20373;-66
2022/11/05 08:35:29;;;;;;;13.90;6.88;;;;;;;8.05;87.72;101766.97;4999283;28;20312;-66
2022/11/05 08:38:01;;;;;;;12.85;7.13;;;;;;;8.11;87.69;101762.16;5000968;28;20488;-66
2022/11/05 08:40:28;;;;;;;13.25;6.72;;;;;;;8.24;87.81;101766.25;5003976;28;20058;-66
2022/11/05 08:43:02;;;;;;;10.98;6.43;;;;;;;8.39;87.47;101769.63;5003356;28;20038;-66
2022/11/05 08:45:28;;;;;;;12.23;6.60;;;;;;;8.48;87.31;101767.53;5006948;28;20022;-66
2022/11/05 08:47:59;;;;;;;15.50;6.75;;;;;;;8.68;86.57;101767.69;5005927;28;20372;-66
2022/11/05 08:50:25;;;;;;;15.05;7.05;;;;;;;8.80;86.41;101769.16;5005210;28;20534;-66
2022/11/05 08:52:50;;;;;;;12.43;6.70;;;;;;;8.99;85.34;101762.38;4997813;28;20034;-66
2022/11/05 08:55:17;;;;;;;11.18;6.72;;;;;;;9.11;85.85;101771.53;4996676;28;20038;-66
2022/11/05 08:57:44;;;;;;;11.70;6.63;;;;;;;9.28;84.96;101762.09;4991205;28;20109;-66
2022/11/05 09:00:11;;;;;;;10.00;6.55;;;;;;;9.50;84.16;101770.78;4993759;28;20048;-66
2022/11/05 09:02:36;;;;;;;9.63;6.53;;;;;;;9.69;83.30;101773.38;4992158;28;20026;-66
2022/11/05 09:05:02;;;;;;;15.63;6.75;;;;;;;9.86;83.29;101769.91;4994136;28;20114;-66
2022/11/05 09:07:27;;;;;;;10.55;6.80;;;;;;;10.08;82.19;101764.06;4998514;28;20049;-66
2022/11/05 09:09:53;;;;;;;11.38;6.35;;;;;;;10.25;81.23;101762.22;5001819;28;20977;-66
2022/11/05 09:12:18;;;;;;;10.40;6.25;;;;;;;10.44;80.19;101761.38;5014375;28;20030;-66
2022/11/05 09:14:43;;;;;;;11.07;6.07;;;;;;;10.57;79.24;101766.22;5005623;28;20117;-66
2022/11/05 09:17:17;;;;;;;11.30;6.20;;;;;;;10.70;80.01;101767.59;5002012;28;20091;-66
2022/11/05 09:19:43;;;;;;;13.43;5.60;;;;;;;10.82;79.22;101762.09;4992243;28;20029;-66
2022/11/05 09:22:11;;;;;;;10.15;5.70;;;;;;;10.91;78.05;101773.63;5002669;28;20029;-66
2022/11/05 09:24:40;;;;;;;12.33;5.80;;;;;;;10.97;77.70;101760.13;5010160;28;20446;-66
2022/11/05 09:27:10;;;;;;;13.52;5.40;;;;;;;10.91;78.10;101760.75;4992683;28;20498;-66
2022/11/05 09:29:36;;;;;;;9.00;5.32;;;;;;;10.91;78.77;101759.88;5004077;28;20034;-66
2022/11/05 09:32:02;;;;;;;12.45;5.15;;;;;;;10.82;77.96;101762.09;4999616;28;20084;-66
2022/11/05 09:34:27;;;;;;;8.50;5.20;;;;;;;10.90;78.74;101759.00;4999126;28;20106;-66
2022/11/05 09:36:53;;;;;;;9.98;5.22;;;;;;;10.88;79.31;101759.78;5003384;28;20447;-66
2022/11/05 09:39:18;;;;;;;12.90;5.82;;;;;;;10.88;78.96;101767.50;5003037;28;20046;-66
2022/11/05 09:41:45;;;;;;;9.85;5.45;;;;;;;10.85;79.29;101768.22;5006641;28;20041;-66
2022/11/05 09:44:14;;;;;;;8.35;5.43;;;;;;;10.91;78.92;101768.47;5007913;28;20477;-66
2022/11/05 09:46:45;;;;;;;11.25;5.70;;;;;;;10.99;79.11;101779.09;5001891;28;20025;-66
2022/11/05 09:49:23;;;;;;;11.70;5.10;;;;;;;11.00;80.07;101776.59;4996602;28;20033;-66
2022/11/05 09:51:50;;;;;;;7.87;5.17;;;;;;;11.04;78.46;101779.25;4999872;28;20064;-66
2022/11/05 09:54:16;;;;;;;9.27;5.07;;;;;;;11.01;79.08;101782.59;5004687;28;20300;-66
2022/11/05 09:56:41;;;;;;;10.23;4.85;;;;;;;11.07;78.46;101788.00;4993894;28;20022;-66
2022/11/05 09:59:16;;;;;;;9.70;5.55;;;;;;;11.11;79.42;101783.88;4994827;28;20056;-66
2022/11/05 10:01:43;;;;;;;12.63;5.35;;;;;;;11.12;78.44;101783.94;4995872;28;20021;-66
2022/11/05 10:04:15;;;;;;;10.77;5.43;;;;;;;11.17;79.63;101784.13;4997701;28;20030;-66
2022/11/05 10:07:03;;;;;;;9.50;4.68;;;;;;;11.23;79.45;101792.97;4999591;28;20476;-66
2022/11/05 10:09:36;;;;;;;8.50;4.70;;;;;;;11.17;79.24;101800.44;5004169;28;20034;-66
2022/11/05 10:12:24;;;;;;;13.70;5.35;;;;;;;11.09;78.91;101799.22;4999482;28;20112;-66
2022/11/05 10:15:01;;;;;;;11.02;5.45;;;;;;;11.11;78.23;101796.75;5009804;28;20038;-66
2022/11/05 10:17:28;;;;;;;8.57;5.07;;;;;;;11.07;78.72;101803.44;5000676;28;20026;-66
2022/11/05 10:20:12;;;;;;;11.68;4.85;;;;;;;11.11;79.08;101810.50;5000062;28;20054;-65
2022/11/05 10:22:37;;;;;;;12.45;5.22;;;;;;;11.07;78.46;101818.88;5008950;28;20432;-66
2022/11/05 10:25:16;;;;;;;11.13;5.13;;;;;;;11.08;79.17;101812.91;5002705;28;20065;-66
2022/11/05 10:27:45;;;;;;;14.25;5.50;;;;;;;11.04;79.34;101818.75;5008083;28;20072;-66
2022/11/05 10:30:13;;;;;;;8.68;5.05;;;;;;;11.07;80.36;101820.59;5009088;28;20028;-65
2022/11/05 10:32:41;;;;;;;13.52;5.70;;;;;;;11.06;79.83;101813.69;5006032;28;20022;-66
2022/11/05 10:35:12;;;;;;;11.20;5.43;;;;;;;11.05;79.78;101823.09;5001817;28;20112;-66
2022/11/05 10:37:37;;;;;;;8.07;5.38;;;;;;;11.05;79.42;101820.53;5002441;28;20097;-66
2022/11/05 10:40:32;;;;;;;8.85;5.38;;;;;;;11.05;79.57;101817.97;5005769;28;20164;-65
2022/11/05 10:43:02;;;;;;;10.82;5.40;;;;;;;11.00;78.55;101820.34;4970508;28;20078;-66
2022/11/05 10:45:37;;;;;;;14.23;5.60;;;;;;;10.96;79.77;101817.56;4998728;28;20101;-66
2022/11/05 10:48:27;;;;;;;9.48;4.68;;;;;;;11.01;79.83;101822.09;4999496;28;20068;-66
2022/11/05 10:50:52;;;;;;;11.77;5.40;;;;;;;11.00;79.77;101817.75;4997951;28;20507;-66
2022/11/05 10:53:29;;;;;;;11.18;5.43;;;;;;;10.98;80.26;101805.63;4993860;28;20034;-66
2022/11/05 10:55:57;;;;;;;10.23;5.15;;;;;;;10.96;79.74;101804.69;5000791;28;20021;-66
2022/11/05 10:58:29;;;;;;;12.23;5.20;;;;;;;10.98;79.58;101805.63;4994513;28;20049;-66
2022/11/05 11:00:54;;;;;;;10.60;5.65;;;;;;;10.95;79.66;101811.53;4995864;28;20033;-66
2022/11/05 11:03:37;;;;;;;10.02;5.47;;;;;;;11.02;79.97;101807.53;4998798;28;20396;-65
2022/11/05 11:06:13;;;;;;;11.65;5.43;;;;;;;10.99;80.53;101807.41;4999068;28;20500;-66
2022/11/05 11:08:42;;;;;;;11.27;5.38;;;;;;;10.99;80.58;101807.41;4997714;28;20117;-66
2022/11/05 11:11:10;;;;;;;;;;;;;;;11.17;79.81;101815.00;5004437;28;20771;-66
2022/11/05 11:13:55;;;;;;;13.07;5.22;;;;;;;11.09;79.42;101808.66;5000247;28;19968;-65
2022/11/05 11:16:26;;;;;;;9.70;5.60;;;;;;;11.05;79.54;101810.25;5005698;28;20060;-66
2022/11/05 11:18:57;;;;;;;13.25;6.05;;;;;;;11.07;79.21;101813.75;5003922;28;20030;-65
2022/11/05 11:21:23;;;;;;;9.68;5.50;;;;;;;11.09;78.27;101806.06;5004053;28;20026;-66
2022/11/05 11:23:57;;;;;;;10.57;5.13;;;;;;;11.08;79.15;101797.47;5008784;28;20029;-65
2022/11/05 11:26:25;;;;;;;12.65;5.80;;;;;;;11.11;78.94;101800.19;5004406;28;20029;-66
2022/11/05 11:29:23;;;;;;;9.30;5.10;;;;;;;11.15;79.31;101794.34;5001620;28;20104;-66
2022/11/05 11:31:54;;;;;;;15.47;5.57;;;;;;;11.19;79.51;101787.63;5004527;28;20032;-66
2022/11/05 11:34:30;;;;;;;11.23;5.50;;;;;;;11.22;79.45;101778.34;5003510;28;20031;-66
2022/11/05 11:37:04;;;;;;;12.60;5.88;;;;;;;11.25;78.64;101799.03;4999250;28;20034;-66
2022/11/05 11:39:31;;;;;;;12.43;5.85;;;;;;;11.31;78.75;101798.41;4997595;28;20042;-66
2022/11/05 11:42:02;;;;;;;10.57;6.00;;;;;;;11.43;78.59;101792.88;4994199;28;20057;-66
2022/11/05 11:44:32;;;;;;;11.30;5.95;;;;;;;11.62;78.60;101797.91;4996683;28;20037;-66
2022/11/05 11:47:02;;;;;;;8.27;5.60;;;;;;;11.70;77.69;101790.47;4999038;28;20050;-66
2022/11/05 11:49:45;;;;;;;15.95;6.47;;;;;;;11.91;78.19;101791.31;5001268;28;20061;-66
2022/11/05 11:52:14;;;;;;;13.45;6.00;;;;;;;12.08;77.11;101787.69;4996970;28;20030;-66
2022/11/05 11:54:40;;;;;;;12.70;6.18;;;;;;;12.22;77.19;101797.59;4996092;28;20113;-66
2022/11/05 11:57:24;;;;;;;10.57;5.55;;;;;;;12.36;77.50;101780.91;5016132;28;20548;-66
2022/11/05 11:59:52;;;;;;;10.45;5.28;;;;;;;12.42;75.42;101781.13;5002841;28;20037;-66
2022/11/05 12:02:32;;;;;;;9.52;5.20;;;;;;;12.56;75.81;101784.22;5005038;28;20021;-66
2022/11/05 12:05:32;;;;;;;11.88;4.63;;;;;;;12.58;75.25;101770.53;5002004;28;20060;-66
2022/11/05 12:08:35;;;;;;;11.35;4.68;;;;;;;12.73;73.76;101777.03;5002471;28;20022;-66
2022/11/05 12:11:14;;;;;;;13.40;4.63;;;;;;;12.72;73.16;101768.41;5000398;28;20038;-66
2022/11/05 12:13:49;;;;;;;;;;;;;;;12.80;73.45;101766.06;4999675;28;20022;-66
2022/11/05 12:16:28;;;;;;;17.25;4.45;;;;;;;12.67;72.87;101772.53;4996991;28;20427;-66
2022/11/05 12:19:21;;;;;;;8.68;4.43;;;;;;;12.63;72.80;101780.13;5002488;28;20109;-66
2022/11/05 12:22:23;;;;;;;9.98;4.53;;;;;;;12.56;72.76;101782.50;5004702;28;20030;-66
2022/11/05 12:25:12;;;;;;;8.90;4.30;;;;;;;12.53;72.10;101784.09;4966095;28;20042;-66
2022/11/05 12:27:37;;;;;;;12.57;4.17;;;;;;;12.47;71.05;101778.72;5007392;28;20014;-65